sensor_id;sensor_type;location;lat;lon;timestamp;P1;durP1;ratioP1;P2;durP2;ratioP2
20734;SDS011;10528;52.124;5.196;2023-02-28T00:01:27;4.55;;;3.42;;
20734;SDS011;10528;52.124;5.196;2023-02-28T00:03:55;7.97;;;3.67;;
20734;SDS011;10528;52.124;5.196;2023-02-28T00:06:22;6.82;;;3.47;;
20734;SDS011;10528;52.124;5.196;2023-02-28T00:08:50;6.45;;;3.03;;
20734;SDS011;10528;52.124;5.196;2023-02-28T00:11:17;7.15;;;3.42;;
20734;SDS011;10528;52.124;5.196;2023-02-28T00:13:44;5.85;;;3.35;;
20734;SDS011;10528;52.124;5.196;2023-02-28T00:16:14;7.03;;;3.53;;
20734;SDS011;10528;52.124;5.196;2023-02-28T00:18:45;8.27;;;3.38;;
20734;SDS011;10528;52.124;5.196;2023-02-28T00:21:14;5.95;;;3.10;;
20734;SDS011;10528;52.124;5.196;2023-02-28T00:23:42;7.07;;;3.65;;
20734;SDS011;10528;52.124;5.196;2023-02-28T00:26:10;9.15;;;3.10;;
20734;SDS011;10528;52.124;5.196;2023-02-28T00:28:39;5.28;;;3.33;;
20734;SDS011;10528;52.124;5.196;2023-02-28T00:31:05;7.40;;;3.42;;
20734;SDS011;10528;52.124;5.196;2023-02-28T00:33:34;5.45;;;2.65;;
20734;SDS011;10528;52.124;5.196;2023-02-28T00:36:05;6.25;;;2.85;;
20734;SDS011;10528;52.124;5.196;2023-02-28T00:38:35;5.57;;;3.10;;
20734;SDS011;10528;52.124;5.196;2023-02-28T00:41:03;6.25;;;2.70;;
20734;SDS011;10528;52.124;5.196;2023-02-28T00:43:32;8.25;;;3.45;;
20734;SDS011;10528;52.124;5.196;2023-02-28T00:46:01;4.13;;;2.60;;
20734;SDS011;10528;52.124;5.196;2023-02-28T00:48:29;8.23;;;2.80;;
20734;SDS011;10528;52.124;5.196;2023-02-28T00:50:56;4.90;;;3.00;;
20734;SDS011;10528;52.124;5.196;2023-02-28T00:53:23;5.30;;;2.58;;
20734;SDS011;10528;52.124;5.196;2023-02-28T00:55:51;6.85;;;3.40;;
20734;SDS011;10528;52.124;5.196;2023-02-28T00:58:18;4.32;;;2.72;;
20734;SDS011;10528;52.124;5.196;2023-02-28T01:00:45;6.47;;;3.10;;
20734;SDS011;10528;52.124;5.196;2023-02-28T01:03:16;5.63;;;2.38;;
20734;SDS011;10528;52.124;5.196;2023-02-28T01:05:45;4.47;;;2.40;;
20734;SDS011;10528;52.124;5.196;2023-02-28T01:08:13;4.40;;;2.45;;
20734;SDS011;10528;52.124;5.196;2023-02-28T01:10:40;5.15;;;2.90;;
20734;SDS011;10528;52.124;5.196;2023-02-28T01:13:07;6.22;;;2.47;;
20734;SDS011;10528;52.124;5.196;2023-02-28T01:15:36;8.05;;;3.42;;
20734;SDS011;10528;52.124;5.196;2023-02-28T01:18:04;9.70;;;2.50;;
20734;SDS011;10528;52.124;5.196;2023-02-28T01:20:31;4.15;;;2.50;;
20734;SDS011;10528;52.124;5.196;2023-02-28T01:22:57;5.38;;;2.63;;
20734;SDS011;10528;52.124;5.196;2023-02-28T01:25:24;6.20;;;2.78;;
20734;SDS011;10528;52.124;5.196;2023-02-28T01:27:51;4.28;;;2.00;;
20734;SDS011;10528;52.124;5.196;2023-02-28T01:30:18;4.90;;;2.20;;
20734;SDS011;10528;52.124;5.196;2023-02-28T01:32:46;4.57;;;2.33;;
20734;SDS011;10528;52.124;5.196;2023-02-28T01:35:13;4.82;;;1.90;;
20734;SDS011;10528;52.124;5.196;2023-02-28T01:37:39;3.33;;;2.30;;
20734;SDS011;10528;52.124;5.196;2023-02-28T01:40:06;4.45;;;2.33;;
20734;SDS011;10528;52.124;5.196;2023-02-28T01:42:34;4.05;;;2.15;;
20734;SDS011;10528;52.124;5.196;2023-02-28T01:47:55;5.93;;;2.22;;
20734;SDS011;10528;52.124;5.196;2023-02-28T01:50:39;4.43;;;1.98;;
20734;SDS011;10528;52.124;5.196;2023-02-28T01:53:13;5.57;;;1.88;;
20734;SDS011;10528;52.124;5.196;2023-02-28T01:55:47;4.80;;;1.98;;
20734;SDS011;10528;52.124;5.196;2023-02-28T01:58:19;3.88;;;2.05;;
20734;SDS011;10528;52.124;5.196;2023-02-28T02:00:46;3.78;;;1.95;;
20734;SDS011;10528;52.124;5.196;2023-02-28T02:03:14;4.75;;;2.38;;
20734;SDS011;10528;52.124;5.196;2023-02-28T02:05:46;5.28;;;2.28;;
20734;SDS011;10528;52.124;5.196;2023-02-28T02:08:18;5.03;;;2.55;;
20734;SDS011;10528;52.124;5.196;2023-02-28T02:10:52;5.43;;;2.65;;
20734;SDS011;10528;52.124;5.196;2023-02-28T02:13:34;5.95;;;2.33;;
20734;SDS011;10528;52.124;5.196;2023-02-28T02:30:32;5.97;;;2.55;;
20734;SDS011;10528;52.124;5.196;2023-02-28T02:36:09;5.55;;;2.40;;
20734;SDS011;10528;52.124;5.196;2023-02-28T02:41:38;3.83;;;1.92;;
20734;SDS011;10528;52.124;5.196;2023-02-28T02:44:21;5.68;;;2.38;;
20734;SDS011;10528;52.124;5.196;2023-02-28T02:46:57;4.85;;;2.30;;
20734;SDS011;10528;52.124;5.196;2023-02-28T02:49:35;5.95;;;2.17;;
20734;SDS011;10528;52.124;5.196;2023-02-28T02:52:07;5.47;;;2.28;;
20734;SDS011;10528;52.124;5.196;2023-02-28T02:54:41;3.95;;;2.17;;
20734;SDS011;10528;52.124;5.196;2023-02-28T02:57:16;3.75;;;1.95;;
20734;SDS011;10528;52.124;5.196;2023-02-28T02:59:52;4.32;;;2.40;;
20734;SDS011;10528;52.124;5.196;2023-02-28T03:02:22;9.38;;;2.30;;
20734;SDS011;10528;52.124;5.196;2023-02-28T03:04:53;6.03;;;2.30;;
20734;SDS011;10528;52.124;5.196;2023-02-28T03:07:27;4.40;;;2.20;;
20734;SDS011;10528;52.124;5.196;2023-02-28T03:09:55;5.82;;;2.10;;
20734;SDS011;10528;52.124;5.196;2023-02-28T03:12:27;6.22;;;2.30;;
20734;SDS011;10528;52.124;5.196;2023-02-28T03:15:19;3.95;;;2.13;;
20734;SDS011;10528;52.124;5.196;2023-02-28T03:18:01;3.33;;;2.03;;
20734;SDS011;10528;52.124;5.196;2023-02-28T03:20:38;4.05;;;2.95;;
20734;SDS011;10528;52.124;5.196;2023-02-28T03:23:42;4.75;;;2.45;;
20734;SDS011;10528;52.124;5.196;2023-02-28T03:26:21;4.03;;;2.50;;
20734;SDS011;10528;52.124;5.196;2023-02-28T03:29:07;4.03;;;2.10;;
20734;SDS011;10528;52.124;5.196;2023-02-28T03:31:50;5.97;;;2.20;;
20734;SDS011;10528;52.124;5.196;2023-02-28T03:34:29;5.05;;;2.20;;
20734;SDS011;10528;52.124;5.196;2023-02-28T03:37:02;2.95;;;1.80;;
20734;SDS011;10528;52.124;5.196;2023-02-28T03:39:39;2.78;;;1.90;;
20734;SDS011;10528;52.124;5.196;2023-02-28T03:42:13;5.97;;;2.35;;
20734;SDS011;10528;52.124;5.196;2023-02-28T03:44:50;5.63;;;2.33;;
20734;SDS011;10528;52.124;5.196;2023-02-28T03:47:32;6.18;;;2.15;;
20734;SDS011;10528;52.124;5.196;2023-02-28T03:50:26;4.90;;;2.42;;
20734;SDS011;10528;52.124;5.196;2023-02-28T03:53:12;4.43;;;2.15;;
20734;SDS011;10528;52.124;5.196;2023-02-28T03:56:07;4.50;;;2.13;;
20734;SDS011;10528;52.124;5.196;2023-02-28T03:59:04;7.47;;;2.42;;
20734;SDS011;10528;52.124;5.196;2023-02-28T04:01:43;5.50;;;2.22;;
20734;SDS011;10528;52.124;5.196;2023-02-28T04:04:13;4.30;;;2.50;;
20734;SDS011;10528;52.124;5.196;2023-02-28T04:06:43;4.85;;;2.33;;
20734;SDS011;10528;52.124;5.196;2023-02-28T04:09:12;6.50;;;2.67;;
20734;SDS011;10528;52.124;5.196;2023-02-28T04:11:42;4.97;;;2.33;;
20734;SDS011;10528;52.124;5.196;2023-02-28T04:14:12;5.82;;;2.70;;
20734;SDS011;10528;52.124;5.196;2023-02-28T04:16:40;5.65;;;2.90;;
20734;SDS011;10528;52.124;5.196;2023-02-28T04:19:08;5.63;;;2.95;;
20734;SDS011;10528;52.124;5.196;2023-02-28T04:21:39;5.40;;;2.92;;
20734;SDS011;10528;52.124;5.196;2023-02-28T04:24:12;6.32;;;3.28;;
20734;SDS011;10528;52.124;5.196;2023-02-28T04:26:44;8.93;;;3.05;;
20734;SDS011;10528;52.124;5.196;2023-02-28T04:29:14;6.47;;;3.38;;
20734;SDS011;10528;52.124;5.196;2023-02-28T04:31:50;5.82;;;3.05;;
20734;SDS011;10528;52.124;5.196;2023-02-28T04:34:19;10.88;;;4.30;;
20734;SDS011;10528;52.124;5.196;2023-02-28T04:36:47;7.32;;;3.33;;
20734;SDS011;10528;52.124;5.196;2023-02-28T04:39:37;6.53;;;3.33;;
20734;SDS011;10528;52.124;5.196;2023-02-28T04:42:05;4.70;;;3.17;;
20734;SDS011;10528;52.124;5.196;2023-02-28T04:44:32;6.32;;;3.10;;
20734;SDS011;10528;52.124;5.196;2023-02-28T04:46:59;5.03;;;3.22;;
20734;SDS011;10528;52.124;5.196;2023-02-28T04:49:26;6.03;;;3.25;;
20734;SDS011;10528;52.124;5.196;2023-02-28T04:51:53;5.57;;;2.72;;
20734;SDS011;10528;52.124;5.196;2023-02-28T04:54:20;5.68;;;2.95;;
20734;SDS011;10528;52.124;5.196;2023-02-28T04:56:47;6.10;;;3.15;;
20734;SDS011;10528;52.124;5.196;2023-02-28T04:59:16;5.85;;;3.10;;
20734;SDS011;10528;52.124;5.196;2023-02-28T05:01:46;4.13;;;2.80;;
20734;SDS011;10528;52.124;5.196;2023-02-28T05:04:15;5.35;;;2.88;;
20734;SDS011;10528;52.124;5.196;2023-02-28T05:06:43;4.50;;;2.90;;
20734;SDS011;10528;52.124;5.196;2023-02-28T05:09:10;6.65;;;3.10;;
20734;SDS011;10528;52.124;5.196;2023-02-28T05:11:40;6.47;;;2.92;;
20734;SDS011;10528;52.124;5.196;2023-02-28T05:14:11;5.40;;;3.15;;
20734;SDS011;10528;52.124;5.196;2023-02-28T05:16:41;4.40;;;2.58;;
20734;SDS011;10528;52.124;5.196;2023-02-28T05:19:08;5.07;;;2.65;;
20734;SDS011;10528;52.124;5.196;2023-02-28T05:21:36;4.43;;;2.50;;
20734;SDS011;10528;52.124;5.196;2023-02-28T05:24:11;4.80;;;2.58;;
20734;SDS011;10528;52.124;5.196;2023-02-28T05:26:41;4.38;;;2.80;;
20734;SDS011;10528;52.124;5.196;2023-02-28T05:29:09;5.43;;;3.15;;
20734;SDS011;10528;52.124;5.196;2023-02-28T05:31:37;5.18;;;2.70;;
20734;SDS011;10528;52.124;5.196;2023-02-28T05:34:05;7.22;;;2.90;;
20734;SDS011;10528;52.124;5.196;2023-02-28T05:36:32;5.53;;;2.55;;
20734;SDS011;10528;52.124;5.196;2023-02-28T05:38:59;5.30;;;2.90;;
20734;SDS011;10528;52.124;5.196;2023-02-28T05:41:26;4.45;;;2.75;;
20734;SDS011;10528;52.124;5.196;2023-02-28T05:43:54;4.53;;;2.83;;
20734;SDS011;10528;52.124;5.196;2023-02-28T05:46:21;5.85;;;2.80;;
20734;SDS011;10528;52.124;5.196;2023-02-28T05:48:48;4.47;;;2.58;;
20734;SDS011;10528;52.124;5.196;2023-02-28T05:51:15;6.30;;;2.88;;
20734;SDS011;10528;52.124;5.196;2023-02-28T05:53:43;6.00;;;2.60;;
20734;SDS011;10528;52.124;5.196;2023-02-28T05:56:10;5.65;;;2.85;;
20734;SDS011;10528;52.124;5.196;2023-02-28T05:58:37;5.05;;;2.60;;
20734;SDS011;10528;52.124;5.196;2023-02-28T06:04:15;4.57;;;2.90;;
20734;SDS011;10528;52.124;5.196;2023-02-28T06:06:56;3.63;;;2.30;;
20734;SDS011;10528;52.124;5.196;2023-02-28T06:09:24;4.20;;;2.83;;
20734;SDS011;10528;52.124;5.196;2023-02-28T06:11:51;4.38;;;2.67;;
20734;SDS011;10528;52.124;5.196;2023-02-28T06:14:18;6.40;;;2.80;;
20734;SDS011;10528;52.124;5.196;2023-02-28T06:16:46;4.00;;;2.70;;
20734;SDS011;10528;52.124;5.196;2023-02-28T06:19:13;5.13;;;2.67;;
20734;SDS011;10528;52.124;5.196;2023-02-28T06:21:41;4.75;;;2.85;;
20734;SDS011;10528;52.124;5.196;2023-02-28T06:24:09;7.38;;;2.78;;
20734;SDS011;10528;52.124;5.196;2023-02-28T06:26:36;5.43;;;3.15;;
20734;SDS011;10528;52.124;5.196;2023-02-28T06:29:03;5.18;;;3.00;;
20734;SDS011;10528;52.124;5.196;2023-02-28T06:31:30;3.45;;;2.67;;
20734;SDS011;10528;52.124;5.196;2023-02-28T06:33:57;5.13;;;3.00;;
20734;SDS011;10528;52.124;5.196;2023-02-28T06:36:24;5.13;;;3.10;;
20734;SDS011;10528;52.124;5.196;2023-02-28T06:38:51;5.18;;;3.03;;
20734;SDS011;10528;52.124;5.196;2023-02-28T06:41:24;7.10;;;4.38;;
20734;SDS011;10528;52.124;5.196;2023-02-28T06:43:53;5.47;;;3.50;;
20734;SDS011;10528;52.124;5.196;2023-02-28T06:46:20;6.63;;;3.38;;
20734;SDS011;10528;52.124;5.196;2023-02-28T06:48:47;6.60;;;3.20;;
20734;SDS011;10528;52.124;5.196;2023-02-28T06:51:18;6.15;;;3.45;;
20734;SDS011;10528;52.124;5.196;2023-02-28T06:53:48;3.88;;;3.00;;
20734;SDS011;10528;52.124;5.196;2023-02-28T06:56:15;5.50;;;3.65;;
20734;SDS011;10528;52.124;5.196;2023-02-28T06:58:50;5.18;;;3.22;;
20734;SDS011;10528;52.124;5.196;2023-02-28T07:01:19;5.45;;;3.60;;
20734;SDS011;10528;52.124;5.196;2023-02-28T07:03:46;5.18;;;3.20;;
20734;SDS011;10528;52.124;5.196;2023-02-28T07:06:18;4.60;;;3.28;;
20734;SDS011;10528;52.124;5.196;2023-02-28T07:08:50;6.45;;;3.40;;
20734;SDS011;10528;52.124;5.196;2023-02-28T07:11:19;5.55;;;3.60;;
20734;SDS011;10528;52.124;5.196;2023-02-28T07:13:49;5.05;;;3.83;;
20734;SDS011;10528;52.124;5.196;2023-02-28T07:16:17;6.70;;;3.67;;
20734;SDS011;10528;52.124;5.196;2023-02-28T07:18:44;5.28;;;3.53;;
20734;SDS011;10528;52.124;5.196;2023-02-28T07:21:11;6.05;;;4.20;;
20734;SDS011;10528;52.124;5.196;2023-02-28T07:23:38;4.82;;;3.28;;
20734;SDS011;10528;52.124;5.196;2023-02-28T07:26:06;4.18;;;3.45;;
20734;SDS011;10528;52.124;5.196;2023-02-28T07:28:39;6.13;;;3.45;;
20734;SDS011;10528;52.124;5.196;2023-02-28T07:31:05;7.88;;;3.83;;
20734;SDS011;10528;52.124;5.196;2023-02-28T07:33:34;5.45;;;3.45;;
20734;SDS011;10528;52.124;5.196;2023-02-28T07:36:05;5.55;;;3.13;;
20734;SDS011;10528;52.124;5.196;2023-02-28T07:38:39;5.95;;;3.50;;
20734;SDS011;10528;52.124;5.196;2023-02-28T07:41:06;5.90;;;3.78;;
20734;SDS011;10528;52.124;5.196;2023-02-28T07:43:34;5.07;;;4.30;;
20734;SDS011;10528;52.124;5.196;2023-02-28T07:46:03;6.47;;;3.67;;
20734;SDS011;10528;52.124;5.196;2023-02-28T07:48:33;7.13;;;4.03;;
20734;SDS011;10528;52.124;5.196;2023-02-28T07:51:01;6.43;;;3.10;;
20734;SDS011;10528;52.124;5.196;2023-02-28T07:53:29;6.78;;;3.50;;
20734;SDS011;10528;52.124;5.196;2023-02-28T07:55:57;5.65;;;3.30;;
20734;SDS011;10528;52.124;5.196;2023-02-28T07:58:26;4.93;;;3.28;;
20734;SDS011;10528;52.124;5.196;2023-02-28T08:00:55;7.43;;;3.33;;
20734;SDS011;10528;52.124;5.196;2023-02-28T08:03:23;5.65;;;3.53;;
20734;SDS011;10528;52.124;5.196;2023-02-28T08:05:50;6.43;;;3.78;;
20734;SDS011;10528;52.124;5.196;2023-02-28T08:08:18;6.40;;;3.40;;
20734;SDS011;10528;52.124;5.196;2023-02-28T08:10:45;7.63;;;4.10;;
20734;SDS011;10528;52.124;5.196;2023-02-28T08:13:12;5.53;;;3.70;;
20734;SDS011;10528;52.124;5.196;2023-02-28T08:15:40;6.00;;;4.07;;
20734;SDS011;10528;52.124;5.196;2023-02-28T08:18:09;5.63;;;4.53;;
20734;SDS011;10528;52.124;5.196;2023-02-28T08:20:36;7.88;;;4.95;;
20734;SDS011;10528;52.124;5.196;2023-02-28T08:23:03;6.15;;;4.10;;
20734;SDS011;10528;52.124;5.196;2023-02-28T08:25:30;6.70;;;4.30;;
20734;SDS011;10528;52.124;5.196;2023-02-28T08:27:58;7.10;;;3.97;;
20734;SDS011;10528;52.124;5.196;2023-02-28T08:30:27;6.38;;;3.92;;
20734;SDS011;10528;52.124;5.196;2023-02-28T08:32:54;5.28;;;3.42;;
20734;SDS011;10528;52.124;5.196;2023-02-28T08:35:21;6.78;;;4.25;;
20734;SDS011;10528;52.124;5.196;2023-02-28T08:37:49;6.20;;;4.50;;
20734;SDS011;10528;52.124;5.196;2023-02-28T08:40:16;5.65;;;3.83;;
20734;SDS011;10528;52.124;5.196;2023-02-28T08:42:47;8.05;;;4.25;;
20734;SDS011;10528;52.124;5.196;2023-02-28T08:45:14;7.18;;;4.07;;
20734;SDS011;10528;52.124;5.196;2023-02-28T08:47:41;5.50;;;3.63;;
20734;SDS011;10528;52.124;5.196;2023-02-28T08:50:08;6.50;;;3.67;;
20734;SDS011;10528;52.124;5.196;2023-02-28T08:52:36;7.03;;;4.30;;
20734;SDS011;10528;52.124;5.196;2023-02-28T08:55:04;6.32;;;3.95;;
20734;SDS011;10528;52.124;5.196;2023-02-28T08:57:32;6.82;;;3.78;;
20734;SDS011;10528;52.124;5.196;2023-02-28T08:59:58;5.38;;;3.47;;
20734;SDS011;10528;52.124;5.196;2023-02-28T09:02:25;6.32;;;3.40;;
20734;SDS011;10528;52.124;5.196;2023-02-28T09:04:52;5.75;;;3.50;;
20734;SDS011;10528;52.124;5.196;2023-02-28T09:07:19;4.43;;;3.30;;
20734;SDS011;10528;52.124;5.196;2023-02-28T09:09:46;5.53;;;3.30;;
20734;SDS011;10528;52.124;5.196;2023-02-28T09:12:24;4.25;;;3.30;;
20734;SDS011;10528;52.124;5.196;2023-02-28T09:14:52;4.22;;;3.10;;
20734;SDS011;10528;52.124;5.196;2023-02-28T09:17:20;6.47;;;2.85;;
20734;SDS011;10528;52.124;5.196;2023-02-28T09:19:49;6.13;;;3.13;;
20734;SDS011;10528;52.124;5.196;2023-02-28T09:22:16;5.57;;;3.10;;
20734;SDS011;10528;52.124;5.196;2023-02-28T09:24:43;4.72;;;3.03;;
20734;SDS011;10528;52.124;5.196;2023-02-28T09:27:11;7.38;;;3.05;;
20734;SDS011;10528;52.124;5.196;2023-02-28T09:29:38;3.97;;;2.67;;
20734;SDS011;10528;52.124;5.196;2023-02-28T09:32:04;5.45;;;2.92;;
20734;SDS011;10528;52.124;5.196;2023-02-28T09:34:32;5.72;;;2.85;;
20734;SDS011;10528;52.124;5.196;2023-02-28T09:36:59;5.47;;;2.72;;
20734;SDS011;10528;52.124;5.196;2023-02-28T09:39:26;4.03;;;2.70;;
20734;SDS011;10528;52.124;5.196;2023-02-28T09:41:54;5.57;;;2.85;;
20734;SDS011;10528;52.124;5.196;2023-02-28T09:44:30;5.55;;;2.60;;
20734;SDS011;10528;52.124;5.196;2023-02-28T09:50:15;5.07;;;2.83;;
20734;SDS011;10528;52.124;5.196;2023-02-28T09:52:56;3.83;;;2.33;;
20734;SDS011;10528;52.124;5.196;2023-02-28T09:55:27;4.55;;;2.53;;
20734;SDS011;10528;52.124;5.196;2023-02-28T09:58:18;5.05;;;2.70;;
20734;SDS011;10528;52.124;5.196;2023-02-28T10:00:59;3.85;;;2.40;;
20734;SDS011;10528;52.124;5.196;2023-02-28T10:03:49;3.72;;;2.38;;
20734;SDS011;10528;52.124;5.196;2023-02-28T10:06:36;4.65;;;2.20;;
20734;SDS011;10528;52.124;5.196;2023-02-28T10:11:54;4.00;;;2.30;;
20734;SDS011;10528;52.124;5.196;2023-02-28T10:14:28;3.72;;;2.28;;
20734;SDS011;10528;52.124;5.196;2023-02-28T10:17:02;5.47;;;2.55;;
20734;SDS011;10528;52.124;5.196;2023-02-28T10:22:25;3.13;;;2.00;;
20734;SDS011;10528;52.124;5.196;2023-02-28T10:25:26;4.38;;;2.00;;
20734;SDS011;10528;52.124;5.196;2023-02-28T10:28:00;2.88;;;1.67;;
20734;SDS011;10528;52.124;5.196;2023-02-28T10:30:34;2.63;;;1.63;;
20734;SDS011;10528;52.124;5.196;2023-02-28T10:33:21;2.67;;;1.80;;
20734;SDS011;10528;52.124;5.196;2023-02-28T10:35:55;4.65;;;1.85;;
20734;SDS011;10528;52.124;5.196;2023-02-28T10:38:55;1.83;;;1.45;;
20734;SDS011;10528;52.124;5.196;2023-02-28T10:41:26;2.30;;;1.45;;
20734;SDS011;10528;52.124;5.196;2023-02-28T10:44:17;3.08;;;1.60;;
20734;SDS011;10528;52.124;5.196;2023-02-28T10:46:49;2.72;;;1.67;;
20734;SDS011;10528;52.124;5.196;2023-02-28T10:49:22;4.03;;;1.95;;
20734;SDS011;10528;52.124;5.196;2023-02-28T10:51:57;3.08;;;1.90;;
20734;SDS011;10528;52.124;5.196;2023-02-28T10:54:29;2.78;;;1.48;;
20734;SDS011;10528;52.124;5.196;2023-02-28T10:57:12;3.65;;;1.90;;
20734;SDS011;10528;52.124;5.196;2023-02-28T10:59:51;2.20;;;1.38;;
20734;SDS011;10528;52.124;5.196;2023-02-28T11:02:32;3.47;;;1.80;;
20734;SDS011;10528;52.124;5.196;2023-02-28T11:08:02;2.22;;;1.50;;
20734;SDS011;10528;52.124;5.196;2023-02-28T11:10:53;2.53;;;1.40;;
20734;SDS011;10528;52.124;5.196;2023-02-28T11:13:33;2.90;;;1.50;;
20734;SDS011;10528;52.124;5.196;2023-02-28T11:16:05;3.22;;;1.70;;
20734;SDS011;10528;52.124;5.196;2023-02-28T11:21:22;4.25;;;1.85;;
20734;SDS011;10528;52.124;5.196;2023-02-28T11:24:02;2.20;;;1.52;;
20734;SDS011;10528;52.124;5.196;2023-02-28T11:26:46;2.38;;;1.70;;
20734;SDS011;10528;52.124;5.196;2023-02-28T11:29:21;5.20;;;1.52;;
20734;SDS011;10528;52.124;5.196;2023-02-28T11:34:59;2.78;;;1.52;;
20734;SDS011;10528;52.124;5.196;2023-02-28T11:37:38;3.17;;;1.60;;
20734;SDS011;10528;52.124;5.196;2023-02-28T11:40:09;2.55;;;1.70;;
20734;SDS011;10528;52.124;5.196;2023-02-28T11:48:20;3.80;;;1.85;;
20734;SDS011;10528;52.124;5.196;2023-02-28T11:51:21;3.03;;;1.70;;
20734;SDS011;10528;52.124;5.196;2023-02-28T11:54:08;2.30;;;1.60;;
20734;SDS011;10528;52.124;5.196;2023-02-28T11:56:57;2.50;;;1.83;;
20734;SDS011;10528;52.124;5.196;2023-02-28T12:02:56;3.83;;;1.50;;
20734;SDS011;10528;52.124;5.196;2023-02-28T12:05:45;3.53;;;1.58;;
20734;SDS011;10528;52.124;5.196;2023-02-28T12:08:26;3.25;;;1.60;;
20734;SDS011;10528;52.124;5.196;2023-02-28T12:26:22;2.53;;;1.60;;
20734;SDS011;10528;52.124;5.196;2023-02-28T12:31:56;2.03;;;1.48;;
20734;SDS011;10528;52.124;5.196;2023-02-28T12:34:37;3.28;;;1.58;;
20734;SDS011;10528;52.124;5.196;2023-02-28T12:37:16;3.80;;;1.70;;
20734;SDS011;10528;52.124;5.196;2023-02-28T12:40:14;2.50;;;1.50;;
20734;SDS011;10528;52.124;5.196;2023-02-28T12:42:50;2.35;;;1.40;;
20734;SDS011;10528;52.124;5.196;2023-02-28T12:45:31;2.47;;;1.45;;
20734;SDS011;10528;52.124;5.196;2023-02-28T12:48:46;2.08;;;1.48;;
20734;SDS011;10528;52.124;5.196;2023-02-28T12:51:19;2.28;;;1.77;;
20734;SDS011;10528;52.124;5.196;2023-02-28T12:53:58;2.35;;;1.45;;
20734;SDS011;10528;52.124;5.196;2023-02-28T13:02:09;1.92;;;1.35;;
20734;SDS011;10528;52.124;5.196;2023-02-28T13:11:00;2.75;;;1.73;;
20734;SDS011;10528;52.124;5.196;2023-02-28T13:13:32;2.70;;;1.75;;
20734;SDS011;10528;52.124;5.196;2023-02-28T13:16:05;2.22;;;1.70;;
20734;SDS011;10528;52.124;5.196;2023-02-28T13:18:45;4.63;;;1.80;;
20734;SDS011;10528;52.124;5.196;2023-02-28T13:21:29;3.95;;;1.70;;
20734;SDS011;10528;52.124;5.196;2023-02-28T13:24:07;2.50;;;1.40;;
20734;SDS011;10528;52.124;5.196;2023-02-28T13:39:49;2.97;;;1.80;;
20734;SDS011;10528;52.124;5.196;2023-02-28T13:42:36;2.92;;;1.80;;
20734;SDS011;10528;52.124;5.196;2023-02-28T13:45:26;2.72;;;1.60;;
20734;SDS011;10528;52.124;5.196;2023-02-28T13:48:00;3.17;;;1.80;;
20734;SDS011;10528;52.124;5.196;2023-02-28T13:50:42;2.17;;;1.50;;
20734;SDS011;10528;52.124;5.196;2023-02-28T13:55:49;2.42;;;1.63;;
20734;SDS011;10528;52.124;5.196;2023-02-28T13:58:55;2.30;;;1.52;;
20734;SDS011;10528;52.124;5.196;2023-02-28T14:02:01;2.92;;;1.90;;
20734;SDS011;10528;52.124;5.196;2023-02-28T14:05:12;3.08;;;1.83;;
20734;SDS011;10528;52.124;5.196;2023-02-28T14:07:49;3.72;;;2.20;;
20734;SDS011;10528;52.124;5.196;2023-02-28T14:10:28;2.65;;;2.17;;
20734;SDS011;10528;52.124;5.196;2023-02-28T14:13:13;2.42;;;1.80;;
20734;SDS011;10528;52.124;5.196;2023-02-28T14:16:17;3.28;;;1.85;;
20734;SDS011;10528;52.124;5.196;2023-02-28T14:18:58;5.47;;;2.05;;
20734;SDS011;10528;52.124;5.196;2023-02-28T14:21:34;4.43;;;1.70;;
20734;SDS011;10528;52.124;5.196;2023-02-28T14:30:11;4.15;;;1.85;;
20734;SDS011;10528;52.124;5.196;2023-02-28T14:39:04;4.38;;;2.45;;
20734;SDS011;10528;52.124;5.196;2023-02-28T14:41:40;3.80;;;1.80;;
20734;SDS011;10528;52.124;5.196;2023-02-28T14:44:20;3.47;;;1.90;;
20734;SDS011;10528;52.124;5.196;2023-02-28T14:46:56;3.25;;;2.17;;
20734;SDS011;10528;52.124;5.196;2023-02-28T14:49:41;4.32;;;2.10;;
20734;SDS011;10528;52.124;5.196;2023-02-28T14:54:38;2.20;;;1.60;;
20734;SDS011;10528;52.124;5.196;2023-02-28T14:57:06;3.28;;;2.13;;
20734;SDS011;10528;52.124;5.196;2023-02-28T15:00:00;2.83;;;2.00;;
20734;SDS011;10528;52.124;5.196;2023-02-28T15:02:49;2.90;;;1.92;;
20734;SDS011;10528;52.124;5.196;2023-02-28T15:05:19;2.30;;;1.52;;
20734;SDS011;10528;52.124;5.196;2023-02-28T15:08:04;2.38;;;1.92;;
20734;SDS011;10528;52.124;5.196;2023-02-28T15:10:55;3.13;;;2.00;;
20734;SDS011;10528;52.124;5.196;2023-02-28T15:13:38;2.85;;;1.95;;
20734;SDS011;10528;52.124;5.196;2023-02-28T15:16:17;2.65;;;1.80;;
20734;SDS011;10528;52.124;5.196;2023-02-28T15:21:27;4.75;;;2.15;;
20734;SDS011;10528;52.124;5.196;2023-02-28T15:27:04;2.17;;;1.60;;
20734;SDS011;10528;52.124;5.196;2023-02-28T15:29:44;2.90;;;2.03;;
20734;SDS011;10528;52.124;5.196;2023-02-28T15:32:21;2.90;;;1.60;;
20734;SDS011;10528;52.124;5.196;2023-02-28T15:34:59;2.85;;;2.05;;
20734;SDS011;10528;52.124;5.196;2023-02-28T15:40:41;3.38;;;1.73;;
20734;SDS011;10528;52.124;5.196;2023-02-28T15:43:14;2.75;;;1.67;;
20734;SDS011;10528;52.124;5.196;2023-02-28T15:46:18;3.05;;;1.80;;
20734;SDS011;10528;52.124;5.196;2023-02-28T15:48:44;2.03;;;1.60;;
20734;SDS011;10528;52.124;5.196;2023-02-28T15:56:24;3.88;;;2.38;;
20734;SDS011;10528;52.124;5.196;2023-02-28T15:58:58;3.45;;;2.22;;
20734;SDS011;10528;52.124;5.196;2023-02-28T16:01:35;2.60;;;1.92;;
20734;SDS011;10528;52.124;5.196;2023-02-28T16:04:15;3.00;;;1.88;;
20734;SDS011;10528;52.124;5.196;2023-02-28T16:06:46;2.83;;;2.00;;
20734;SDS011;10528;52.124;5.196;2023-02-28T16:09:26;4.70;;;2.55;;
20734;SDS011;10528;52.124;5.196;2023-02-28T16:11:56;3.47;;;2.13;;
20734;SDS011;10528;52.124;5.196;2023-02-28T16:14:28;4.32;;;2.10;;
20734;SDS011;10528;52.124;5.196;2023-02-28T16:17:02;4.30;;;2.13;;
20734;SDS011;10528;52.124;5.196;2023-02-28T16:19:31;4.40;;;2.58;;
20734;SDS011;10528;52.124;5.196;2023-02-28T16:22:00;4.85;;;2.53;;
20734;SDS011;10528;52.124;5.196;2023-02-28T16:24:27;3.13;;;1.85;;
20734;SDS011;10528;52.124;5.196;2023-02-28T16:26:54;4.82;;;2.33;;
20734;SDS011;10528;52.124;5.196;2023-02-28T16:29:24;3.80;;;2.00;;
20734;SDS011;10528;52.124;5.196;2023-02-28T16:31:58;3.67;;;2.00;;
20734;SDS011;10528;52.124;5.196;2023-02-28T16:34:26;3.97;;;2.33;;
20734;SDS011;10528;52.124;5.196;2023-02-28T16:36:53;2.95;;;1.80;;
20734;SDS011;10528;52.124;5.196;2023-02-28T16:39:20;5.35;;;2.10;;
20734;SDS011;10528;52.124;5.196;2023-02-28T16:41:47;4.60;;;1.90;;
20734;SDS011;10528;52.124;5.196;2023-02-28T16:46:59;3.72;;;2.30;;
20734;SDS011;10528;52.124;5.196;2023-02-28T16:49:27;4.38;;;2.30;;
20734;SDS011;10528;52.124;5.196;2023-02-28T16:51:55;4.22;;;2.47;;
20734;SDS011;10528;52.124;5.196;2023-02-28T16:54:22;7.47;;;3.40;;
20734;SDS011;10528;52.124;5.196;2023-02-28T16:56:49;4.63;;;2.85;;
20734;SDS011;10528;52.124;5.196;2023-02-28T16:59:19;5.88;;;2.92;;
20734;SDS011;10528;52.124;5.196;2023-02-28T17:01:50;4.20;;;2.50;;
20734;SDS011;10528;52.124;5.196;2023-02-28T17:04:18;3.72;;;2.10;;
20734;SDS011;10528;52.124;5.196;2023-02-28T17:06:45;5.30;;;2.22;;
20734;SDS011;10528;52.124;5.196;2023-02-28T17:09:16;3.47;;;2.20;;
20734;SDS011;10528;52.124;5.196;2023-02-28T17:11:49;3.47;;;2.13;;
20734;SDS011;10528;52.124;5.196;2023-02-28T17:14:16;7.38;;;3.10;;
20734;SDS011;10528;52.124;5.196;2023-02-28T17:16:43;4.82;;;2.80;;
20734;SDS011;10528;52.124;5.196;2023-02-28T17:19:14;3.80;;;2.38;;
20734;SDS011;10528;52.124;5.196;2023-02-28T17:21:43;4.60;;;2.88;;
20734;SDS011;10528;52.124;5.196;2023-02-28T17:24:10;4.53;;;2.90;;
20734;SDS011;10528;52.124;5.196;2023-02-28T17:26:44;5.60;;;2.88;;
20734;SDS011;10528;52.124;5.196;2023-02-28T17:29:15;4.53;;;2.90;;
20734;SDS011;10528;52.124;5.196;2023-02-28T17:31:45;5.30;;;2.72;;
20734;SDS011;10528;52.124;5.196;2023-02-28T17:34:12;5.32;;;2.92;;